sensor_id;sensor_type;location;lat;lon;timestamp;pressure;altitude;pressure_sealevel;temperature;humidity
56182;BME280;51963;46.052;14.544;2023-09-30T00:02:11;98861.66;;;11.71;100.00
56182;BME280;51963;46.052;14.544;2023-09-30T00:04:38;98864.31;;;11.86;100.00
56182;BME280;51963;46.052;14.544;2023-09-30T00:07:04;98866.69;;;11.81;100.00
56182;BME280;51963;46.052;14.544;2023-09-30T00:09:31;98860.91;;;11.78;100.00
56182;BME280;51963;46.052;14.544;2023-09-30T00:11:56;98865.22;;;11.64;100.00
56182;BME280;51963;46.052;14.544;2023-09-30T00:14:25;98861.03;;;11.54;100.00
56182;BME280;51963;46.052;14.544;2023-09-30T00:16:51;98849.16;;;11.50;100.00
56182;BME280;51963;46.052;14.544;2023-09-30T00:19:16;98838.38;;;11.37;100.00
56182;BME280;51963;46.052;14.544;2023-09-30T00:21:42;98849.34;;;11.64;100.00
56182;BME280;51963;46.052;14.544;2023-09-30T00:24:08;98854.63;;;11.64;100.00
56182;BME280;51963;46.052;14.544;2023-09-30T00:26:35;98836.09;;;11.49;100.00
56182;BME280;51963;46.052;14.544;2023-09-30T00:29:01;98845.38;;;11.44;100.00
56182;BME280;51963;46.052;14.544;2023-09-30T00:31:31;98838.44;;;11.43;100.00
56182;BME280;51963;46.052;14.544;2023-09-30T00:33:57;98857.00;;;11.58;100.00
56182;BME280;51963;46.052;14.544;2023-09-30T00:36:23;98853.63;;;11.50;100.00
56182;BME280;51963;46.052;14.544;2023-09-30T00:38:48;98839.38;;;11.36;100.00
56182;BME280;51963;46.052;14.544;2023-09-30T00:41:14;98861.19;;;11.38;100.00
56182;BME280;51963;46.052;14.544;2023-09-30T00:43:40;98853.88;;;11.55;100.00
56182;BME280;51963;46.052;14.544;2023-09-30T00:46:29;98853.19;;;11.76;100.00
56182;BME280;51963;46.052;14.544;2023-09-30T00:48:59;98844.22;;;11.77;100.00
56182;BME280;51963;46.052;14.544;2023-09-30T00:51:25;98836.09;;;11.64;100.00
56182;BME280;51963;46.052;14.544;2023-09-30T00:53:53;98866.50;;;11.83;100.00
56182;BME280;51963;46.052;14.544;2023-09-30T00:56:22;98866.16;;;11.71;100.00
56182;BME280;51963;46.052;14.544;2023-09-30T00:58:49;98873.44;;;11.69;100.00
56182;BME280;51963;46.052;14.544;2023-09-30T01:01:19;98864.41;;;11.78;100.00
56182;BME280;51963;46.052;14.544;2023-09-30T01:03:46;98857.75;;;11.52;100.00
56182;BME280;51963;46.052;14.544;2023-09-30T01:06:13;98859.06;;;11.33;100.00
56182;BME280;51963;46.052;14.544;2023-09-30T01:08:39;98836.13;;;11.10;100.00
56182;BME280;51963;46.052;14.544;2023-09-30T01:11:05;98839.53;;;11.19;100.00
56182;BME280;51963;46.052;14.544;2023-09-30T01:13:35;98845.34;;;11.14;100.00
56182;BME280;51963;46.052;14.544;2023-09-30T01:16:08;98858.16;;;11.26;100.00
56182;BME280;51963;46.052;14.544;2023-09-30T01:18:38;98861.47;;;11.58;100.00
56182;BME280;51963;46.052;14.544;2023-09-30T01:21:05;98857.94;;;11.66;100.00
56182;BME280;51963;46.052;14.544;2023-09-30T01:23:34;98855.72;;;11.54;100.00
56182;BME280;51963;46.052;14.544;2023-09-30T01:26:07;98855.09;;;11.52;100.00
56182;BME280;51963;46.052;14.544;2023-09-30T01:28:34;98858.25;;;11.33;100.00
56182;BME280;51963;46.052;14.544;2023-09-30T01:31:00;98849.13;;;11.20;100.00
56182;BME280;51963;46.052;14.544;2023-09-30T01:33:27;98838.63;;;11.27;100.00
56182;BME280;51963;46.052;14.544;2023-09-30T01:35:54;98840.38;;;11.35;100.00
56182;BME280;51963;46.052;14.544;2023-09-30T01:38:19;98846.59;;;11.42;100.00
56182;BME280;51963;46.052;14.544;2023-09-30T01:40:46;98850.41;;;11.24;100.00
56182;BME280;51963;46.052;14.544;2023-09-30T01:43:15;98839.19;;;11.37;100.00
56182;BME280;51963;46.052;14.544;2023-09-30T01:45:42;98831.78;;;11.33;100.00
56182;BME280;51963;46.052;14.544;2023-09-30T01:48:09;98841.38;;;11.49;100.00
56182;BME280;51963;46.052;14.544;2023-09-30T01:50:38;98851.25;;;11.55;100.00
56182;BME280;51963;46.052;14.544;2023-09-30T01:53:04;98843.22;;;11.48;100.00
56182;BME280;51963;46.052;14.544;2023-09-30T01:55:37;98842.75;;;11.29;100.00
56182;BME280;51963;46.052;14.544;2023-09-30T01:58:03;98849.84;;;11.14;100.00
56182;BME280;51963;46.052;14.544;2023-09-30T02:00:29;98831.19;;;10.92;100.00
56182;BME280;51963;46.052;14.544;2023-09-30T02:02:56;98839.13;;;11.07;100.00
56182;BME280;51963;46.052;14.544;2023-09-30T02:05:22;98829.41;;;11.23;100.00
56182;BME280;51963;46.052;14.544;2023-09-30T02:07:50;98834.88;;;11.21;100.00
56182;BME280;51963;46.052;14.544;2023-09-30T02:10:17;98852.69;;;11.42;100.00
56182;BME280;51963;46.052;14.544;2023-09-30T02:12:46;98844.84;;;11.34;100.00
56182;BME280;51963;46.052;14.544;2023-09-30T02:15:13;98842.66;;;11.38;100.00
56182;BME280;51963;46.052;14.544;2023-09-30T02:17:39;98832.50;;;11.26;100.00
56182;BME280;51963;46.052;14.544;2023-09-30T02:20:05;98833.03;;;11.22;100.00
56182;BME280;51963;46.052;14.544;2023-09-30T02:22:39;98836.88;;;11.19;100.00
56182;BME280;51963;46.052;14.544;2023-09-30T02:25:05;98828.56;;;11.07;100.00
56182;BME280;51963;46.052;14.544;2023-09-30T02:27:34;98818.53;;;11.03;100.00
56182;BME280;51963;46.052;14.544;2023-09-30T02:30:00;98804.94;;;11.06;100.00
56182;BME280;51963;46.052;14.544;2023-09-30T02:32:26;98796.91;;;11.14;100.00
56182;BME280;51963;46.052;14.544;2023-09-30T02:34:52;98798.00;;;11.20;100.00
56182;BME280;51963;46.052;14.544;2023-09-30T02:37:18;98801.47;;;11.20;100.00
56182;BME280;51963;46.052;14.544;2023-09-30T02:39:44;98781.31;;;11.19;100.00
56182;BME280;51963;46.052;14.544;2023-09-30T02:42:10;98798.38;;;11.32;100.00
56182;BME280;51963;46.052;14.544;2023-09-30T02:44:36;98798.03;;;11.35;100.00
56182;BME280;51963;46.052;14.544;2023-09-30T02:47:02;98791.63;;;11.14;100.00
56182;BME280;51963;46.052;14.544;2023-09-30T02:49:28;98808.13;;;11.16;100.00
56182;BME280;51963;46.052;14.544;2023-09-30T02:51:54;98807.84;;;11.11;100.00
56182;BME280;51963;46.052;14.544;2023-09-30T02:54:20;98807.78;;;11.19;100.00
56182;BME280;51963;46.052;14.544;2023-09-30T02:56:46;98820.19;;;11.34;100.00
56182;BME280;51963;46.052;14.544;2023-09-30T02:59:13;98796.91;;;11.14;100.00
56182;BME280;51963;46.052;14.544;2023-09-30T03:01:39;98833.25;;;11.20;100.00
56182;BME280;51963;46.052;14.544;2023-09-30T03:04:06;98827.03;;;11.28;100.00
56182;BME280;51963;46.052;14.544;2023-09-30T03:06:33;98814.44;;;11.15;100.00
56182;BME280;51963;46.052;14.544;2023-09-30T03:09:02;98801.94;;;11.24;100.00
56182;BME280;51963;46.052;14.544;2023-09-30T03:11:31;98844.59;;;11.44;100.00
56182;BME280;51963;46.052;14.544;2023-09-30T03:13:57;98832.72;;;11.40;100.00
56182;BME280;51963;46.052;14.544;2023-09-30T03:16:23;98836.00;;;11.42;100.00
56182;BME280;51963;46.052;14.544;2023-09-30T03:18:50;98825.41;;;11.42;100.00
56182;BME280;51963;46.052;14.544;2023-09-30T03:21:17;98831.59;;;11.19;100.00
56182;BME280;51963;46.052;14.544;2023-09-30T03:23:43;98828.75;;;11.06;100.00
56182;BME280;51963;46.052;14.544;2023-09-30T03:26:09;98832.13;;;11.14;100.00
56182;BME280;51963;46.052;14.544;2023-09-30T03:28:36;98835.75;;;10.98;100.00
56182;BME280;51963;46.052;14.544;2023-09-30T03:31:04;98805.88;;;10.75;100.00
56182;BME280;51963;46.052;14.544;2023-09-30T03:33:32;98840.13;;;11.06;100.00
56182;BME280;51963;46.052;14.544;2023-09-30T03:35:59;98834.59;;;11.31;100.00
56182;BME280;51963;46.052;14.544;2023-09-30T03:38:26;98844.47;;;11.22;100.00
56182;BME280;51963;46.052;14.544;2023-09-30T03:40:52;98800.94;;;10.86;100.00
56182;BME280;51963;46.052;14.544;2023-09-30T03:43:21;98838.56;;;10.97;100.00
56182;BME280;51963;46.052;14.544;2023-09-30T03:45:46;98844.34;;;10.77;100.00
56182;BME280;51963;46.052;14.544;2023-09-30T03:48:12;98847.75;;;10.86;100.00
56182;BME280;51963;46.052;14.544;2023-09-30T03:50:38;98843.41;;;10.93;100.00
56182;BME280;51963;46.052;14.544;2023-09-30T03:53:05;98849.97;;;10.97;100.00
56182;BME280;51963;46.052;14.544;2023-09-30T03:55:32;98852.97;;;10.94;100.00
56182;BME280;51963;46.052;14.544;2023-09-30T03:57:59;98855.41;;;10.81;100.00
56182;BME280;51963;46.052;14.544;2023-09-30T04:00:25;98850.19;;;10.73;100.00
56182;BME280;51963;46.052;14.544;2023-09-30T04:02:51;98846.59;;;10.65;100.00
56182;BME280;51963;46.052;14.544;2023-09-30T04:05:24;98823.81;;;10.56;100.00
56182;BME280;51963;46.052;14.544;2023-09-30T04:08:02;98822.44;;;10.68;100.00
56182;BME280;51963;46.052;14.544;2023-09-30T04:10:28;98836.13;;;10.72;100.00
56182;BME280;51963;46.052;14.544;2023-09-30T04:12:55;98808.88;;;10.71;100.00
56182;BME280;51963;46.052;14.544;2023-09-30T04:15:21;98828.03;;;10.74;100.00
56182;BME280;51963;46.052;14.544;2023-09-30T04:17:50;98824.94;;;10.85;100.00
56182;BME280;51963;46.052;14.544;2023-09-30T04:20:18;98823.38;;;10.76;100.00
56182;BME280;51963;46.052;14.544;2023-09-30T04:22:49;98827.25;;;10.65;100.00
56182;BME280;51963;46.052;14.544;2023-09-30T04:25:15;98826.31;;;10.81;100.00
56182;BME280;51963;46.052;14.544;2023-09-30T04:27:42;98828.75;;;10.59;100.00
56182;BME280;51963;46.052;14.544;2023-09-30T04:30:08;98839.75;;;10.71;100.00
56182;BME280;51963;46.052;14.544;2023-09-30T04:32:37;98832.72;;;10.63;100.00
56182;BME280;51963;46.052;14.544;2023-09-30T04:35:07;98826.66;;;10.54;100.00
56182;BME280;51963;46.052;14.544;2023-09-30T04:37:36;98843.31;;;10.55;100.00
56182;BME280;51963;46.052;14.544;2023-09-30T04:40:07;98811.59;;;10.32;100.00
56182;BME280;51963;46.052;14.544;2023-09-30T04:42:34;98842.09;;;10.42;100.00
56182;BME280;51963;46.052;14.544;2023-09-30T04:45:05;98838.16;;;10.30;100.00
56182;BME280;51963;46.052;14.544;2023-09-30T04:47:35;98856.91;;;10.52;100.00
56182;BME280;51963;46.052;14.544;2023-09-30T04:50:01;98847.25;;;10.67;100.00
56182;BME280;51963;46.052;14.544;2023-09-30T04:52:30;98852.47;;;10.76;100.00
56182;BME280;51963;46.052;14.544;2023-09-30T04:54:56;98847.19;;;10.76;100.00
56182;BME280;51963;46.052;14.544;2023-09-30T04:57:22;98847.25;;;10.59;100.00
56182;BME280;51963;46.052;14.544;2023-09-30T04:59:48;98815.88;;;10.33;100.00
56182;BME280;51963;46.052;14.544;2023-09-30T05:02:13;98856.53;;;10.55;100.00
56182;BME280;51963;46.052;14.544;2023-09-30T05:04:41;98844.03;;;10.49;100.00
56182;BME280;51963;46.052;14.544;2023-09-30T05:07:08;98843.38;;;10.47;100.00
56182;BME280;51963;46.052;14.544;2023-09-30T05:09:34;98835.81;;;10.35;100.00
56182;BME280;51963;46.052;14.544;2023-09-30T05:11:59;98843.59;;;10.37;100.00
56182;BME280;51963;46.052;14.544;2023-09-30T05:14:25;98855.59;;;10.48;100.00
56182;BME280;51963;46.052;14.544;2023-09-30T05:16:53;98865.81;;;10.51;100.00
56182;BME280;51963;46.052;14.544;2023-09-30T05:19:18;98849.88;;;10.67;100.00
56182;BME280;51963;46.052;14.544;2023-09-30T05:21:46;98848.41;;;10.65;100.00
56182;BME280;51963;46.052;14.544;2023-09-30T05:24:12;98866.34;;;10.78;100.00
56182;BME280;51963;46.052;14.544;2023-09-30T05:26:38;98874.44;;;10.76;100.00
56182;BME280;51963;46.052;14.544;2023-09-30T05:29:04;98871.84;;;10.91;100.00
56182;BME280;51963;46.052;14.544;2023-09-30T05:31:30;98874.38;;;11.08;100.00
56182;BME280;51963;46.052;14.544;2023-09-30T05:33:56;98880.88;;;10.97;100.00
56182;BME280;51963;46.052;14.544;2023-09-30T05:36:22;98885.19;;;10.98;100.00
56182;BME280;51963;46.052;14.544;2023-09-30T05:38:48;98879.00;;;11.06;100.00
56182;BME280;51963;46.052;14.544;2023-09-30T05:41:16;98870.66;;;10.94;100.00
56182;BME280;51963;46.052;14.544;2023-09-30T05:43:42;98871.66;;;10.93;100.00
56182;BME280;51963;46.052;14.544;2023-09-30T05:46:09;98891.75;;;11.02;100.00
56182;BME280;51963;46.052;14.544;2023-09-30T05:48:35;98880.19;;;11.03;100.00
56182;BME280;51963;46.052;14.544;2023-09-30T05:51:00;98887.53;;;11.16;100.00
56182;BME280;51963;46.052;14.544;2023-09-30T05:53:28;98878.75;;;11.15;100.00
56182;BME280;51963;46.052;14.544;2023-09-30T05:55:54;98879.59;;;11.16;100.00
56182;BME280;51963;46.052;14.544;2023-09-30T05:58:19;98888.88;;;11.12;100.00
56182;BME280;51963;46.052;14.544;2023-09-30T06:00:46;98883.69;;;11.19;100.00
56182;BME280;51963;46.052;14.544;2023-09-30T06:03:11;98886.75;;;11.30;100.00
56182;BME280;51963;46.052;14.544;2023-09-30T06:05:40;98897.97;;;11.33;100.00
56182;BME280;51963;46.052;14.544;2023-09-30T06:08:09;98896.31;;;11.32;100.00
56182;BME280;51963;46.052;14.544;2023-09-30T06:10:42;98899.41;;;11.35;100.00
56182;BME280;51963;46.052;14.544;2023-09-30T06:13:09;98904.19;;;11.40;100.00
56182;BME280;51963;46.052;14.544;2023-09-30T06:15:42;98893.72;;;11.62;100.00
56182;BME280;51963;46.052;14.544;2023-09-30T06:18:09;98902.69;;;11.91;100.00
56182;BME280;51963;46.052;14.544;2023-09-30T06:20:39;98902.59;;;11.99;100.00
56182;BME280;51963;46.052;14.544;2023-09-30T06:23:04;98908.97;;;12.35;100.00
56182;BME280;51963;46.052;14.544;2023-09-30T06:25:30;98921.22;;;12.72;100.00
56182;BME280;51963;46.052;14.544;2023-09-30T06:27:58;98915.47;;;12.32;100.00
56182;BME280;51963;46.052;14.544;2023-09-30T06:30:24;98891.69;;;12.60;100.00
56182;BME280;51963;46.052;14.544;2023-09-30T06:33:01;98901.94;;;13.07;100.00
56182;BME280;51963;46.052;14.544;2023-09-30T06:35:30;98912.31;;;13.45;100.00
56182;BME280;51963;46.052;14.544;2023-09-30T06:37:58;98910.56;;;13.59;100.00
56182;BME280;51963;46.052;14.544;2023-09-30T06:40:24;98908.38;;;13.41;100.00
56182;BME280;51963;46.052;14.544;2023-09-30T06:42:50;98913.59;;;13.28;100.00
56182;BME280;51963;46.052;14.544;2023-09-30T06:45:17;98915.78;;;13.46;100.00
56182;BME280;51963;46.052;14.544;2023-09-30T06:47:43;98916.19;;;13.78;100.00
56182;BME280;51963;46.052;14.544;2023-09-30T06:50:12;98925.50;;;13.96;100.00
56182;BME280;51963;46.052;14.544;2023-09-30T06:52:42;98914.47;;;13.99;100.00
56182;BME280;51963;46.052;14.544;2023-09-30T06:55:11;98923.13;;;14.07;100.00
56182;BME280;51963;46.052;14.544;2023-09-30T06:57:39;98911.59;;;13.93;100.00
56182;BME280;51963;46.052;14.544;2023-09-30T07:00:06;98932.13;;;14.13;100.00
56182;BME280;51963;46.052;14.544;2023-09-30T07:02:37;98934.81;;;14.13;100.00
56182;BME280;51963;46.052;14.544;2023-09-30T07:05:10;98932.41;;;14.25;100.00
56182;BME280;51963;46.052;14.544;2023-09-30T07:07:36;98923.59;;;14.18;100.00
56182;BME280;51963;46.052;14.544;2023-09-30T07:10:03;98936.91;;;14.25;100.00
56182;BME280;51963;46.052;14.544;2023-09-30T07:12:33;98932.97;;;14.14;100.00
56182;BME280;51963;46.052;14.544;2023-09-30T07:15:01;98941.66;;;14.36;100.00
56182;BME280;51963;46.052;14.544;2023-09-30T07:17:27;98937.19;;;14.43;100.00
56182;BME280;51963;46.052;14.544;2023-09-30T07:19:53;98925.69;;;14.36;100.00
56182;BME280;51963;46.052;14.544;2023-09-30T07:22:19;98937.13;;;14.30;100.00
56182;BME280;51963;46.052;14.544;2023-09-30T07:24:44;98945.00;;;14.51;100.00
56182;BME280;51963;46.052;14.544;2023-09-30T07:27:10;98943.50;;;14.91;100.00
56182;BME280;51963;46.052;14.544;2023-09-30T07:29:36;98950.91;;;15.29;100.00
56182;BME280;51963;46.052;14.544;2023-09-30T07:32:02;98941.91;;;15.37;100.00
56182;BME280;51963;46.052;14.544;2023-09-30T07:34:28;98947.66;;;15.20;100.00
56182;BME280;51963;46.052;14.544;2023-09-30T07:36:54;98946.44;;;15.43;100.00
56182;BME280;51963;46.052;14.544;2023-09-30T07:39:20;98958.72;;;15.37;100.00
56182;BME280;51963;46.052;14.544;2023-09-30T07:41:46;98936.16;;;15.67;100.00
56182;BME280;51963;46.052;14.544;2023-09-30T07:44:12;98964.44;;;16.02;100.00
56182;BME280;51963;46.052;14.544;2023-09-30T07:46:38;98959.13;;;15.48;100.00
56182;BME280;51963;46.052;14.544;2023-09-30T07:49:03;98969.78;;;15.68;100.00
56182;BME280;51963;46.052;14.544;2023-09-30T07:51:30;98964.06;;;15.91;100.00
56182;BME280;51963;46.052;14.544;2023-09-30T07:53:55;98959.91;;;16.02;100.00
56182;BME280;51963;46.052;14.544;2023-09-30T07:56:22;98955.38;;;16.16;100.00
56182;BME280;51963;46.052;14.544;2023-09-30T07:58:49;98967.56;;;16.57;100.00
56182;BME280;51963;46.052;14.544;2023-09-30T08:01:14;98972.53;;;17.25;100.00
56182;BME280;51963;46.052;14.544;2023-09-30T08:03:43;98979.53;;;17.77;100.00
56182;BME280;51963;46.052;14.544;2023-09-30T08:06:09;98982.53;;;17.36;100.00
56182;BME280;51963;46.052;14.544;2023-09-30T08:08:35;98976.69;;;17.71;100.00
56182;BME280;51963;46.052;14.544;2023-09-30T08:11:01;98937.06;;;18.43;100.00
56182;BME280;51963;46.052;14.544;2023-09-30T08:13:27;98970.88;;;18.74;100.00
56182;BME280;51963;46.052;14.544;2023-09-30T08:15:54;98990.91;;;19.45;100.00
56182;BME280;51963;46.052;14.544;2023-09-30T08:18:21;98977.38;;;18.48;100.00
56182;BME280;51963;46.052;14.544;2023-09-30T08:20:47;98977.56;;;18.84;100.00
56182;BME280;51963;46.052;14.544;2023-09-30T08:23:13;98978.78;;;19.00;100.00
56182;BME280;51963;46.052;14.544;2023-09-30T08:25:38;98979.31;;;19.09;100.00
56182;BME280;51963;46.052;14.544;2023-09-30T08:28:05;98979.38;;;19.02;100.00
56182;BME280;51963;46.052;14.544;2023-09-30T08:30:32;98974.59;;;18.55;100.00
56182;BME280;51963;46.052;14.544;2023-09-30T08:32:59;98973.72;;;18.61;100.00
56182;BME280;51963;46.052;14.544;2023-09-30T08:35:24;98955.66;;;18.56;100.00
56182;BME280;51963;46.052;14.544;2023-09-30T08:37:50;98980.25;;;18.28;100.00
56182;BME280;51963;46.052;14.544;2023-09-30T08:40:22;98991.91;;;18.71;100.00
56182;BME280;51963;46.052;14.544;2023-09-30T08:42:51;98993.84;;;18.82;100.00
56182;BME280;51963;46.052;14.544;2023-09-30T08:45:18;98989.84;;;18.73;100.00
56182;BME280;51963;46.052;14.544;2023-09-30T08:47:47;98985.25;;;18.61;100.00
56182;BME280;51963;46.052;14.544;2023-09-30T08:50:13;98993.25;;;18.80;100.00
56182;BME280;51963;46.052;14.544;2023-09-30T08:52:40;98995.34;;;18.59;100.00
56182;BME280;51963;46.052;14.544;2023-09-30T08:55:10;99013.81;;;18.49;100.00
56182;BME280;51963;46.052;14.544;2023-09-30T08:57:42;99016.47;;;18.12;100.00
56182;BME280;51963;46.052;14.544;2023-09-30T09:00:10;99013.94;;;18.17;100.00
56182;BME280;51963;46.052;14.544;2023-09-30T09:02:40;99009.75;;;17.52;100.00
56182;BME280;51963;46.052;14.544;2023-09-30T09:05:06;98992.84;;;17.58;100.00
56182;BME280;51963;46.052;14.544;2023-09-30T09:07:34;99009.16;;;18.00;100.00
56182;BME280;51963;46.052;14.544;2023-09-30T09:10:11;99005.13;;;17.08;100.00
56182;BME280;51963;46.052;14.544;2023-09-30T09:12:39;99010.84;;;17.44;100.00
56182;BME280;51963;46.052;14.544;2023-09-30T09:15:06;99010.84;;;17.69;100.00
56182;BME280;51963;46.052;14.544;2023-09-30T09:17:47;98996.44;;;17.70;100.00
56182;BME280;51963;46.052;14.544;2023-09-30T09:20:22;98999.66;;;17.54;100.00
56182;BME280;51963;46.052;14.544;2023-09-30T09:22:51;98999.72;;;17.72;100.00
56182;BME280;51963;46.052;14.544;2023-09-30T09:25:19;98998.63;;;17.55;100.00
56182;BME280;51963;46.052;14.544;2023-09-30T09:27:49;98991.53;;;17.67;100.00
56182;BME280;51963;46.052;14.544;2023-09-30T09:33:04;98993.28;;;17.99;100.00
56182;BME280;51963;46.052;14.544;2023-09-30T09:35:34;98988.28;;;18.09;100.00
56182;BME280;51963;46.052;14.544;2023-09-30T09:38:06;98990.22;;;18.21;100.00
56182;BME280;51963;46.052;14.544;2023-09-30T09:40:33;98985.75;;;18.52;100.00
56182;BME280;51963;46.052;14.544;2023-09-30T09:43:00;98976.22;;;18.74;100.00
56182;BME280;51963;46.052;14.544;2023-09-30T09:45:28;98987.44;;;19.68;100.00
56182;BME280;51963;46.052;14.544;2023-09-30T09:47:59;98983.81;;;21.50;93.30
56182;BME280;51963;46.052;14.544;2023-09-30T09:50:28;98983.69;;;22.35;81.65
56182;BME280;51963;46.052;14.544;2023-09-30T09:52:54;98987.78;;;22.60;78.03
56182;BME280;51963;46.052;14.544;2023-09-30T09:55:22;98989.94;;;22.19;78.20
56182;BME280;51963;46.052;14.544;2023-09-30T09:57:48;98996.22;;;22.24;77.44
56182;BME280;51963;46.052;14.544;2023-09-30T10:00:16;98990.66;;;23.63;66.98
56182;BME280;51963;46.052;14.544;2023-09-30T10:02:45;98975.63;;;24.15;63.01
56182;BME280;51963;46.052;14.544;2023-09-30T10:05:15;98995.00;;;24.55;60.42
56182;BME280;51963;46.052;14.544;2023-09-30T10:07:46;98977.06;;;23.85;66.00
56182;BME280;51963;46.052;14.544;2023-09-30T10:10:16;98981.09;;;24.26;60.72
56182;BME280;51963;46.052;14.544;2023-09-30T10:12:45;98994.03;;;24.82;56.99
56182;BME280;51963;46.052;14.544;2023-09-30T10:18:02;99008.41;;;23.92;60.36
56182;BME280;51963;46.052;14.544;2023-09-30T10:20:35;99007.03;;;24.27;58.78
56182;BME280;51963;46.052;14.544;2023-09-30T10:25:52;98998.72;;;23.96;61.54
56182;BME280;51963;46.052;14.544;2023-09-30T10:28:36;98999.13;;;24.10;62.32
56182;BME280;51963;46.052;14.544;2023-09-30T10:36:45;98967.81;;;23.11;65.18
56182;BME280;51963;46.052;14.544;2023-09-30T10:39:13;98977.25;;;22.59;71.54
56182;BME280;51963;46.052;14.544;2023-09-30T10:46:58;98984.06;;;25.19;56.12
56182;BME280;51963;46.052;14.544;2023-09-30T10:51:54;98986.19;;;24.91;59.97
56182;BME280;51963;46.052;14.544;2023-09-30T10:56:52;98983.56;;;23.52;62.13
56182;BME280;51963;46.052;14.544;2023-09-30T10:59:22;98993.97;;;23.38;62.86
56182;BME280;51963;46.052;14.544;2023-09-30T11:01:52;98981.22;;;22.51;67.94
56182;BME280;51963;46.052;14.544;2023-09-30T11:04:21;98973.00;;;23.45;64.05
56182;BME280;51963;46.052;14.544;2023-09-30T11:06:47;98986.13;;;23.69;61.62
56182;BME280;51963;46.052;14.544;2023-09-30T11:09:21;98986.88;;;23.26;63.87
56182;BME280;51963;46.052;14.544;2023-09-30T11:14:21;98981.88;;;23.13;66.26
56182;BME280;51963;46.052;14.544;2023-09-30T11:16:48;98974.16;;;22.94;65.80
56182;BME280;51963;46.052;14.544;2023-09-30T11:19:14;98957.88;;;22.39;67.42
56182;BME280;51963;46.052;14.544;2023-09-30T11:21:41;98986.75;;;22.22;70.35
56182;BME280;51963;46.052;14.544;2023-09-30T11:24:09;98977.06;;;22.21;75.12
56182;BME280;51963;46.052;14.544;2023-09-30T11:26:35;98964.06;;;21.95;76.94
56182;BME280;51963;46.052;14.544;2023-09-30T11:31:31;98945.59;;;22.04;70.70
56182;BME280;51963;46.052;14.544;2023-09-30T11:34:00;98969.16;;;22.36;71.18
56182;BME280;51963;46.052;14.544;2023-09-30T11:36:30;98961.16;;;22.41;71.43
56182;BME280;51963;46.052;14.544;2023-09-30T11:38:59;98954.13;;;21.62;74.52
56182;BME280;51963;46.052;14.544;2023-09-30T11:41:40;98962.78;;;22.42;74.14
56182;BME280;51963;46.052;14.544;2023-09-30T11:44:08;98962.94;;;22.53;71.04
56182;BME280;51963;46.052;14.544;2023-09-30T11:46:51;98959.97;;;23.09;68.90
56182;BME280;51963;46.052;14.544;2023-09-30T11:49:43;98960.06;;;23.20;65.57
56182;BME280;51963;46.052;14.544;2023-09-30T11:52:13;98944.81;;;23.31;65.73
56182;BME280;51963;46.052;14.544;2023-09-30T11:54:44;98934.97;;;22.15;71.08
56182;BME280;51963;46.052;14.544;2023-09-30T11:57:10;98940.59;;;22.35;72.85
56182;BME280;51963;46.052;14.544;2023-09-30T11:59:39;98930.31;;;22.77;69.47
56182;BME280;51963;46.052;14.544;2023-09-30T12:02:10;98939.44;;;22.76;67.15
56182;BME280;51963;46.052;14.544;2023-09-30T12:04:36;98940.22;;;22.98;65.77
56182;BME280;51963;46.052;14.544;2023-09-30T12:07:04;98939.66;;;22.96;67.90
56182;BME280;51963;46.052;14.544;2023-09-30T12:09:32;98935.34;;;24.83;57.04
56182;BME280;51963;46.052;14.544;2023-09-30T12:12:00;98940.25;;;25.53;54.55
56182;BME280;51963;46.052;14.544;2023-09-30T12:14:26;98935.63;;;24.76;55.80
56182;BME280;51963;46.052;14.544;2023-09-30T12:16:54;98932.56;;;27.13;49.66
56182;BME280;51963;46.052;14.544;2023-09-30T12:19:22;98929.25;;;27.50;50.85
56182;BME280;51963;46.052;14.544;2023-09-30T12:21:51;98935.31;;;28.20;46.02
56182;BME280;51963;46.052;14.544;2023-09-30T12:24:17;98923.19;;;27.59;46.08
56182;BME280;51963;46.052;14.544;2023-09-30T12:26:47;98928.06;;;26.92;47.79
56182;BME280;51963;46.052;14.544;2023-09-30T12:29:21;98931.31;;;27.88;48.38
56182;BME280;51963;46.052;14.544;2023-09-30T12:31:51;98918.81;;;26.48;48.60
56182;BME280;51963;46.052;14.544;2023-09-30T12:34:17;98921.47;;;25.98;51.95
56182;BME280;51963;46.052;14.544;2023-09-30T12:36:43;98919.63;;;25.73;51.46
56182;BME280;51963;46.052;14.544;2023-09-30T12:39:10;98916.59;;;27.06;49.75
56182;BME280;51963;46.052;14.544;2023-09-30T12:41:43;98928.75;;;27.14;48.01
56182;BME280;51963;46.052;14.544;2023-09-30T12:44:10;98910.28;;;29.33;43.13
56182;BME280;51963;46.052;14.544;2023-09-30T12:46:40;98916.09;;;31.26;40.83
56182;BME280;51963;46.052;14.544;2023-09-30T12:49:09;98934.56;;;30.83;40.81
56182;BME280;51963;46.052;14.544;2023-09-30T12:51:35;98916.63;;;29.90;43.25
56182;BME280;51963;46.052;14.544;2023-09-30T12:54:02;98916.41;;;29.25;43.52
56182;BME280;51963;46.052;14.544;2023-09-30T12:56:28;98918.72;;;29.51;42.50
56182;BME280;51963;46.052;14.544;2023-09-30T12:58:59;98922.78;;;29.01;44.31
56182;BME280;51963;46.052;14.544;2023-09-30T13:01:25;98915.16;;;28.65;44.05
56182;BME280;51963;46.052;14.544;2023-09-30T13:03:51;98915.09;;;30.76;40.42
56182;BME280;51963;46.052;14.544;2023-09-30T13:06:19;98914.31;;;30.62;39.36
56182;BME280;51963;46.052;14.544;2023-09-30T13:08:46;98918.78;;;31.17;38.81
56182;BME280;51963;46.052;14.544;2023-09-30T13:11:13;98916.44;;;31.33;38.72
56182;BME280;51963;46.052;14.544;2023-09-30T13:13:39;98890.31;;;32.83;35.33
56182;BME280;51963;46.052;14.544;2023-09-30T13:16:05;98896.72;;;33.23;34.64